createdAt,value
2023-04-27T00:01:12.916Z,10.20
2023-04-27T00:03:42.402Z,10.10
2023-04-27T00:06:11.261Z,10.10
2023-04-27T00:08:39.815Z,10.10
2023-04-27T00:11:09.260Z,10.10
2023-04-27T00:13:37.851Z,10.10
2023-04-27T00:16:06.312Z,10.10
2023-04-27T00:18:34.893Z,10.10
2023-04-27T00:21:02.982Z,10.10
2023-04-27T00:23:31.525Z,10.10
2023-04-27T00:25:59.583Z,10.10
2023-04-27T00:28:29.496Z,10.20
2023-04-27T00:30:58.021Z,10.20
2023-04-27T00:33:26.401Z,10.20
2023-04-27T00:35:54.936Z,10.20
2023-04-27T00:38:22.993Z,10.20
2023-04-27T00:40:51.585Z,10.20
2023-04-27T00:43:19.672Z,10.20
2023-04-27T00:45:49.295Z,10.20
2023-04-27T00:48:18.055Z,10.20
2023-04-27T00:50:46.138Z,10.20
2023-04-27T00:53:14.994Z,10.20
2023-04-27T00:55:43.012Z,10.20
2023-04-27T00:58:12.351Z,10.10
2023-04-27T01:00:41.042Z,10.10
2023-04-27T01:03:11.948Z,10.10
2023-04-27T01:05:41.104Z,10.10
2023-04-27T01:08:10.187Z,10.00
2023-04-27T01:10:39.097Z,10.00
2023-04-27T01:13:07.149Z,10.00
2023-04-27T01:15:36.019Z,10.00
2023-04-27T01:18:05.222Z,9.90
2023-04-27T01:20:36.392Z,9.90
2023-04-27T01:23:04.529Z,9.90
2023-04-27T01:25:34.436Z,9.90
2023-04-27T01:28:02.799Z,9.90
2023-04-27T01:30:31.374Z,9.80
2023-04-27T01:32:59.476Z,9.80
2023-04-27T01:35:28.449Z,9.80
2023-04-27T01:37:58.260Z,9.80
2023-04-27T01:40:26.805Z,9.80
2023-04-27T01:42:56.287Z,9.70
2023-04-27T01:45:24.982Z,9.70
2023-04-27T01:47:53.948Z,9.70
2023-04-27T01:50:22.372Z,9.70
2023-04-27T01:52:50.840Z,9.70
2023-04-27T01:55:19.041Z,9.70
2023-04-27T01:57:47.698Z,9.70
2023-04-27T02:00:17.831Z,9.60
2023-04-27T02:02:46.524Z,9.60
2023-04-27T02:05:14.660Z,9.60
2023-04-27T02:07:42.751Z,9.50
2023-04-27T02:10:11.645Z,9.40
2023-04-27T02:12:40.185Z,9.40
2023-04-27T02:15:09.679Z,9.40
2023-04-27T02:17:40.102Z,9.30
2023-04-27T02:20:10.497Z,9.30
2023-04-27T02:22:38.723Z,9.30
2023-04-27T02:25:07.787Z,9.20
2023-04-27T02:27:39.023Z,9.20
2023-04-27T02:30:10.474Z,9.20
2023-04-27T02:32:41.698Z,9.10
2023-04-27T02:35:11.053Z,9.10
2023-04-27T02:37:39.603Z,9.10
2023-04-27T02:40:09.487Z,9.00
2023-04-27T02:42:39.331Z,9.00
2023-04-27T02:45:09.653Z,9.00
2023-04-27T02:47:39.627Z,8.90
2023-04-27T02:50:08.711Z,8.90
2023-04-27T02:52:36.943Z,8.90
2023-04-27T02:55:06.072Z,8.90
2023-04-27T02:57:34.659Z,8.80
2023-04-27T03:00:03.894Z,8.80
2023-04-27T03:02:32.599Z,8.80
2023-04-27T03:05:02.140Z,8.70
2023-04-27T03:07:32.124Z,8.70
2023-04-27T03:10:00.656Z,8.50
2023-04-27T03:12:29.179Z,8.60
2023-04-27T03:14:58.015Z,8.60
2023-04-27T03:17:26.586Z,8.60
2023-04-27T03:19:55.166Z,8.60
2023-04-27T03:22:25.063Z,8.50
2023-04-27T03:24:53.116Z,8.50
2023-04-27T03:27:21.215Z,8.50
2023-04-27T03:29:52.845Z,8.40
2023-04-27T03:32:21.200Z,8.40
2023-04-27T03:34:49.763Z,8.40
2023-04-27T03:37:17.847Z,8.40
2023-04-27T03:39:47.747Z,8.30
2023-04-27T03:42:16.294Z,8.30
2023-04-27T03:44:45.067Z,8.30
2023-04-27T03:47:13.588Z,8.30
2023-04-27T03:49:42.152Z,8.30
2023-04-27T03:52:10.209Z,8.30
2023-04-27T03:54:38.749Z,8.30
2023-04-27T03:57:08.181Z,8.30
2023-04-27T03:59:36.748Z,8.40
2023-04-27T04:02:05.786Z,8.40
2023-04-27T04:04:34.116Z,8.40
2023-04-27T04:07:03.510Z,8.40
2023-04-27T04:09:32.094Z,8.40
2023-04-27T04:12:00.162Z,8.40
2023-04-27T04:14:30.891Z,8.40
2023-04-27T04:16:59.161Z,8.40
2023-04-27T04:19:27.216Z,8.40
2023-04-27T04:21:57.780Z,8.40
2023-04-27T04:24:25.834Z,8.40
2023-04-27T04:26:54.381Z,8.40
2023-04-27T04:29:23.114Z,8.40
2023-04-27T04:31:52.922Z,8.30
2023-04-27T04:34:21.855Z,8.40
2023-04-27T04:36:51.733Z,8.40
2023-04-27T04:39:21.346Z,8.40
2023-04-27T04:41:50.711Z,8.40
2023-04-27T04:44:19.464Z,8.40
2023-04-27T04:46:47.656Z,8.40
2023-04-27T04:49:17.110Z,8.40
2023-04-27T04:51:46.336Z,8.40
2023-04-27T04:54:14.899Z,8.40
2023-04-27T04:56:42.959Z,8.50
2023-04-27T04:59:11.088Z,8.50
2023-04-27T05:01:39.317Z,8.50
2023-04-27T05:04:07.955Z,8.50
2023-04-27T05:06:37.563Z,8.50
2023-04-27T05:09:06.600Z,8.50
2023-04-27T05:11:34.680Z,8.50
2023-04-27T05:14:03.194Z,8.50
2023-04-27T05:16:32.059Z,8.50
2023-04-27T05:19:00.167Z,8.50
2023-04-27T05:21:28.263Z,8.50
2023-04-27T05:23:58.186Z,8.50
2023-04-27T05:26:26.254Z,8.50
2023-04-27T05:28:54.776Z,8.50
2023-04-27T05:31:22.896Z,8.50
2023-04-27T05:33:50.932Z,8.50
2023-04-27T05:36:19.461Z,8.50
2023-04-27T05:38:47.607Z,8.50
2023-04-27T05:41:17.526Z,8.50
2023-04-27T05:43:46.032Z,8.60
2023-04-27T05:46:16.081Z,8.60
2023-04-27T05:48:44.684Z,8.60
2023-04-27T05:51:12.739Z,8.60
2023-04-27T05:53:41.611Z,8.70
2023-04-27T05:56:12.291Z,8.70
2023-04-27T05:58:42.177Z,8.80
2023-04-27T06:01:10.683Z,8.80
2023-04-27T06:03:39.300Z,8.90
2023-04-27T06:06:07.883Z,8.90
2023-04-27T06:08:37.918Z,9.00
2023-04-27T06:11:07.021Z,9.10
2023-04-27T06:13:35.677Z,9.10
2023-04-27T06:16:06.140Z,9.20
2023-04-27T06:18:34.274Z,9.20
2023-04-27T06:21:03.084Z,9.30
2023-04-27T06:23:31.368Z,9.30
2023-04-27T06:25:59.859Z,9.40
2023-04-27T06:28:28.397Z,9.40
2023-04-27T06:30:56.938Z,9.50
2023-04-27T06:33:26.742Z,9.50
2023-04-27T06:35:54.826Z,9.60
2023-04-27T06:38:23.024Z,9.70
2023-04-27T06:40:53.225Z,9.80
2023-04-27T06:43:22.225Z,9.90
2023-04-27T06:45:50.382Z,10.00
2023-04-27T06:48:19.283Z,10.10
2023-04-27T06:50:49.368Z,10.20
2023-04-27T06:53:18.501Z,10.20
2023-04-27T06:55:48.425Z,10.30
2023-04-27T06:58:16.871Z,10.40
2023-04-27T07:00:45.010Z,10.40
2023-04-27T07:03:13.723Z,10.50
2023-04-27T07:05:42.018Z,10.60
2023-04-27T07:08:12.263Z,10.60
2023-04-27T07:10:41.095Z,10.70
2023-04-27T07:13:09.602Z,10.70
2023-04-27T07:15:38.176Z,10.80
2023-04-27T07:18:06.890Z,10.90
2023-04-27T07:20:35.118Z,10.90
2023-04-27T07:23:04.503Z,11.00
2023-04-27T07:25:34.197Z,11.00
2023-04-27T07:28:02.720Z,11.10
2023-04-27T07:30:31.060Z,11.20
2023-04-27T07:33:01.322Z,11.30
2023-04-27T07:35:29.520Z,11.30
2023-04-27T07:37:57.970Z,11.40
2023-04-27T07:40:26.970Z,11.50
2023-04-27T07:42:57.241Z,11.60
2023-04-27T07:45:31.854Z,11.60
2023-04-27T07:48:00.799Z,11.70
2023-04-27T07:50:30.283Z,11.80
2023-04-27T07:52:59.476Z,11.90
2023-04-27T07:55:28.684Z,11.90
2023-04-27T07:57:58.833Z,12.00
2023-04-27T08:00:27.659Z,12.10
2023-04-27T08:02:56.637Z,12.10
2023-04-27T08:05:25.413Z,12.20
2023-04-27T08:07:54.468Z,12.30
2023-04-27T08:10:23.889Z,12.30
2023-04-27T08:12:52.124Z,12.40
2023-04-27T08:15:21.591Z,12.40
2023-04-27T08:17:50.279Z,12.50
2023-04-27T08:20:18.482Z,12.50
2023-04-27T08:22:47.047Z,12.60
2023-04-27T08:25:15.112Z,12.60
2023-04-27T08:27:43.319Z,12.60
2023-04-27T08:30:12.710Z,12.60
2023-04-27T08:32:42.380Z,12.70
2023-04-27T08:35:12.030Z,12.70
2023-04-27T08:37:40.172Z,12.70
2023-04-27T08:40:10.448Z,12.80
2023-04-27T08:42:38.610Z,12.80
2023-04-27T08:45:09.956Z,12.90
2023-04-27T08:47:43.405Z,12.90
2023-04-27T08:50:14.311Z,13.00
2023-04-27T08:52:44.778Z,13.00
2023-04-27T08:55:15.683Z,13.10
2023-04-27T08:57:56.204Z,13.20
2023-04-27T09:00:27.148Z,13.20
2023-04-27T09:02:55.897Z,13.30
2023-04-27T09:05:25.621Z,13.40
2023-04-27T09:08:06.037Z,13.40
2023-04-27T09:10:45.581Z,13.50
2023-04-27T09:13:14.353Z,13.60
2023-04-27T09:15:48.536Z,13.60
2023-04-27T09:18:18.926Z,13.70
2023-04-27T09:20:49.751Z,13.80
2023-04-27T09:23:29.059Z,13.80
2023-04-27T09:25:58.635Z,13.90
2023-04-27T09:28:29.121Z,14.00
2023-04-27T09:30:58.941Z,14.00
2023-04-27T09:33:28.101Z,14.10
2023-04-27T09:35:58.899Z,14.20
2023-04-27T09:38:27.662Z,14.20
2023-04-27T09:40:57.159Z,14.30
2023-04-27T09:43:27.349Z,14.30
2023-04-27T09:45:56.333Z,14.40
2023-04-27T09:48:25.269Z,14.40
2023-04-27T09:50:54.681Z,14.50
2023-04-27T09:53:27.545Z,14.60
2023-04-27T09:56:09.021Z,14.60
2023-04-27T09:59:08.282Z,14.70
2023-04-27T10:01:42.301Z,14.80
2023-04-27T10:04:37.673Z,14.90
2023-04-27T10:07:09.439Z,15.00
2023-04-27T10:09:42.323Z,15.10
2023-04-27T10:12:19.383Z,15.20
2023-04-27T10:14:52.404Z,15.20
2023-04-27T10:17:26.038Z,15.30
2023-04-27T10:19:57.935Z,15.40
2023-04-27T10:22:39.751Z,15.50
2023-04-27T10:25:28.753Z,15.70
2023-04-27T10:28:00.071Z,15.80
2023-04-27T10:30:32.528Z,15.90
2023-04-27T10:33:06.419Z,15.90
2023-04-27T10:35:35.935Z,16.00
2023-04-27T10:38:09.390Z,16.10
2023-04-27T10:40:39.872Z,16.10
2023-04-27T10:43:12.284Z,16.20
2023-04-27T10:45:40.903Z,16.20
2023-04-27T10:48:09.829Z,16.30
2023-04-27T10:50:37.945Z,16.30
2023-04-27T10:53:07.359Z,16.40
2023-04-27T10:55:36.380Z,16.40
2023-04-27T10:58:06.596Z,16.50
2023-04-27T11:00:37.129Z,16.50
2023-04-27T11:03:15.011Z,16.50
2023-04-27T11:05:43.678Z,16.60
2023-04-27T11:08:14.088Z,16.50
2023-04-27T11:10:45.818Z,16.60
2023-04-27T11:13:17.979Z,16.60
2023-04-27T11:15:48.490Z,16.60
2023-04-27T11:18:17.250Z,16.60
2023-04-27T11:20:46.584Z,16.60
2023-04-27T11:23:25.701Z,16.60
2023-04-27T11:25:54.414Z,16.60
2023-04-27T11:28:25.168Z,16.60
2023-04-27T11:30:59.784Z,16.50
2023-04-27T11:33:29.105Z,16.60
2023-04-27T11:35:58.023Z,16.60
2023-04-27T11:38:27.114Z,16.70
2023-04-27T11:41:03.195Z,16.70
2023-04-27T11:43:33.272Z,16.80
2023-04-27T11:46:04.131Z,16.90
2023-04-27T11:48:33.659Z,17.00
2023-04-27T11:51:01.766Z,17.10
2023-04-27T11:53:34.331Z,17.10
2023-04-27T11:56:05.716Z,17.10
2023-04-27T11:58:36.752Z,17.20
2023-04-27T12:01:05.572Z,17.20
2023-04-27T12:03:34.905Z,17.20
2023-04-27T12:06:21.592Z,17.20
2023-04-27T12:08:52.107Z,17.30
2023-04-27T12:11:21.298Z,17.40
2023-04-27T12:13:51.037Z,17.50
2023-04-27T12:16:19.707Z,17.60
2023-04-27T12:18:47.776Z,17.70
2023-04-27T12:21:16.404Z,17.80
2023-04-27T12:23:45.257Z,17.90
2023-04-27T12:26:15.520Z,18.00
2023-04-27T12:28:44.233Z,18.20
2023-04-27T12:31:17.077Z,18.30
2023-04-27T12:33:45.900Z,18.50
2023-04-27T12:36:14.428Z,18.70
2023-04-27T12:38:42.459Z,18.80
2023-04-27T12:41:11.301Z,18.90
2023-04-27T12:43:41.628Z,19.00
2023-04-27T12:46:09.971Z,19.10
2023-04-27T12:48:40.016Z,19.20
2023-04-27T12:51:08.619Z,19.20
2023-04-27T12:53:37.196Z,19.20
2023-04-27T12:56:05.916Z,19.30
2023-04-27T12:58:34.057Z,19.30
2023-04-27T13:01:02.726Z,19.30
2023-04-27T13:03:30.896Z,19.40
2023-04-27T13:06:00.923Z,19.40
2023-04-27T13:08:29.267Z,19.40
2023-04-27T13:10:57.817Z,19.50
2023-04-27T13:13:26.321Z,19.60
2023-04-27T13:15:54.928Z,19.70
2023-04-27T13:18:23.556Z,19.80
2023-04-27T13:20:51.747Z,20.00
2023-04-27T13:23:21.724Z,20.10
2023-04-27T13:25:49.789Z,20.10
2023-04-27T13:28:18.314Z,20.20
2023-04-27T13:30:46.866Z,20.20
2023-04-27T13:33:22.470Z,20.30
2023-04-27T13:35:52.482Z,20.40
2023-04-27T13:38:21.978Z,20.50
2023-04-27T13:40:50.613Z,20.60
2023-04-27T13:43:18.683Z,20.80
2023-04-27T13:45:47.226Z,21.00
2023-04-27T13:48:15.739Z,21.20
2023-04-27T13:50:43.785Z,21.40
2023-04-27T13:53:12.574Z,21.50
2023-04-27T13:55:42.077Z,21.50
2023-04-27T13:58:11.300Z,21.50
2023-04-27T14:00:39.719Z,21.50
2023-04-27T14:03:09.493Z,21.50
2023-04-27T14:05:38.131Z,21.50
2023-04-27T14:08:06.668Z,21.60
2023-04-27T14:10:35.211Z,21.70
2023-04-27T14:13:04.722Z,21.80
2023-04-27T14:15:37.424Z,21.90
2023-04-27T14:18:07.684Z,22.00
2023-04-27T14:20:36.829Z,22.10
2023-04-27T14:23:06.209Z,22.10
2023-04-27T14:25:35.257Z,22.00
2023-04-27T14:28:07.199Z,21.90
2023-04-27T14:30:36.363Z,21.80
2023-04-27T14:33:05.040Z,21.70
2023-04-27T14:35:35.603Z,21.60
2023-04-27T14:38:04.751Z,21.50
2023-04-27T14:40:33.481Z,21.40
2023-04-27T14:43:01.551Z,21.30
2023-04-27T14:45:43.590Z,21.30
2023-04-27T14:48:18.753Z,21.20
2023-04-27T14:50:47.010Z,21.10
2023-04-27T14:53:15.097Z,21.10
2023-04-27T14:55:45.700Z,21.20
2023-04-27T14:58:14.550Z,21.20
2023-04-27T15:00:44.092Z,21.20
2023-04-27T15:03:12.394Z,21.20
2023-04-27T15:05:41.150Z,21.20
2023-04-27T15:08:09.282Z,21.20
2023-04-27T15:10:37.824Z,21.10
2023-04-27T15:13:06.342Z,21.10
2023-04-27T15:15:34.456Z,21.10
2023-04-27T15:18:04.530Z,21.20
2023-04-27T15:20:32.749Z,21.40
2023-04-27T15:23:00.925Z,21.50
2023-04-27T15:25:29.085Z,21.70
2023-04-27T15:27:57.164Z,22.00
2023-04-27T15:30:25.901Z,22.30
2023-04-27T15:32:55.283Z,22.50
2023-04-27T15:35:24.800Z,22.80
2023-04-27T15:37:53.756Z,22.90
2023-04-27T15:40:21.997Z,23.00
2023-04-27T15:42:50.624Z,23.00
2023-04-27T15:45:19.410Z,23.00
2023-04-27T15:47:48.091Z,22.90
2023-04-27T15:50:17.962Z,22.80
2023-04-27T15:52:47.940Z,22.70
2023-04-27T15:55:17.066Z,22.60
2023-04-27T15:57:45.137Z,22.50
2023-04-27T16:00:16.449Z,22.40
2023-04-27T16:02:45.237Z,22.30
2023-04-27T16:05:13.385Z,22.30
2023-04-27T16:07:43.566Z,22.30
2023-04-27T16:10:13.461Z,22.40
2023-04-27T16:12:41.665Z,22.50
2023-04-27T16:15:11.788Z,22.60
2023-04-27T16:17:40.173Z,22.70
2023-04-27T16:20:10.227Z,22.70
2023-04-27T16:22:38.917Z,22.80
2023-04-27T16:25:11.153Z,22.80
2023-04-27T16:27:40.760Z,22.70
2023-04-27T16:30:10.168Z,22.60
2023-04-27T16:32:38.686Z,22.50
2023-04-27T16:35:07.768Z,22.40
2023-04-27T16:37:36.313Z,22.30
2023-04-27T16:40:06.980Z,22.10
2023-04-27T16:42:35.690Z,22.00
2023-04-27T16:45:07.168Z,21.90
2023-04-27T16:47:36.731Z,21.80
2023-04-27T16:50:05.304Z,21.60
2023-04-27T16:52:33.408Z,21.60
2023-04-27T16:55:01.519Z,21.40
2023-04-27T16:57:29.604Z,21.30
2023-04-27T16:59:58.186Z,21.30
2023-04-27T17:02:27.868Z,21.20
2023-04-27T17:04:56.709Z,21.10
2023-04-27T17:07:25.518Z,21.10
2023-04-27T17:09:54.382Z,21.00
2023-04-27T17:12:22.438Z,21.00
2023-04-27T17:14:50.993Z,20.90
2023-04-27T17:17:19.585Z,20.90
2023-04-27T17:19:49.024Z,20.80
2023-04-27T17:22:17.323Z,20.80
2023-04-27T17:24:45.479Z,20.70
2023-04-27T17:27:14.001Z,20.60
2023-04-27T17:29:42.529Z,20.60
2023-04-27T17:32:10.598Z,20.60
2023-04-27T17:34:40.416Z,20.50
2023-04-27T17:37:11.928Z,20.50
2023-04-27T17:39:40.499Z,20.40
2023-04-27T17:42:12.231Z,20.40
2023-04-27T17:44:42.593Z,20.30
2023-04-27T17:47:11.482Z,20.30
2023-04-27T17:49:40.040Z,20.20
2023-04-27T17:52:08.551Z,20.10
2023-04-27T17:54:38.054Z,20.00
2023-04-27T17:57:06.146Z,20.00
2023-04-27T17:59:34.250Z,19.90
2023-04-27T18:02:03.454Z,19.80
2023-04-27T18:04:31.742Z,19.70
2023-04-27T18:06:59.905Z,19.70
2023-04-27T18:09:29.453Z,19.60
2023-04-27T18:12:00.460Z,19.50
2023-04-27T18:14:28.751Z,19.40
2023-04-27T18:16:56.983Z,19.30
2023-04-27T18:19:25.160Z,19.20
2023-04-27T18:21:53.701Z,19.10
2023-04-27T18:24:22.282Z,19.10
2023-04-27T18:26:50.396Z,18.90
2023-04-27T18:29:19.851Z,18.80
2023-04-27T18:31:47.966Z,18.80
2023-04-27T18:34:16.062Z,18.60
2023-04-27T18:36:45.801Z,18.60
2023-04-27T18:39:14.104Z,18.40
2023-04-27T18:41:42.320Z,18.40
2023-04-27T18:44:10.956Z,18.30
2023-04-27T18:46:40.416Z,18.20
2023-04-27T18:49:08.485Z,18.10
2023-04-27T18:51:36.508Z,18.00
2023-04-27T18:56:33.382Z,17.90
2023-04-27T18:59:01.514Z,17.80
2023-04-27T19:01:31.471Z,17.70
2023-04-27T19:04:01.194Z,17.60
2023-04-27T19:06:29.469Z,17.60
2023-04-27T19:08:58.238Z,17.50
2023-04-27T19:11:26.620Z,17.40
2023-04-27T19:13:55.144Z,17.30
2023-04-27T19:16:25.061Z,17.30
2023-04-27T19:18:53.639Z,17.20
2023-04-27T19:21:23.096Z,17.20
2023-04-27T19:23:51.698Z,17.10
2023-04-27T19:26:19.754Z,17.00
2023-04-27T19:28:48.370Z,17.00
2023-04-27T19:31:16.474Z,16.90
2023-04-27T19:33:47.381Z,16.80
2023-04-27T19:36:25.236Z,16.80
2023-04-27T19:38:53.306Z,16.70
2023-04-27T19:41:22.484Z,16.60
2023-04-27T19:43:51.038Z,16.60
2023-04-27T19:46:19.651Z,16.50
2023-04-27T19:48:47.758Z,16.50
2023-04-27T19:51:16.315Z,16.40
2023-04-27T19:53:45.861Z,16.40
2023-04-27T19:56:13.987Z,16.40
2023-04-27T19:58:42.245Z,16.30
2023-04-27T20:01:12.963Z,16.30
2023-04-27T20:03:41.698Z,16.30
2023-04-27T20:06:11.146Z,16.30
2023-04-27T20:08:39.912Z,16.20
2023-04-27T20:11:09.922Z,16.20
2023-04-27T20:13:38.008Z,16.10
2023-04-27T20:16:07.087Z,16.10
2023-04-27T20:18:35.171Z,16.10
2023-04-27T20:21:03.765Z,16.10
2023-04-27T20:23:31.818Z,16.10
2023-04-27T20:25:59.885Z,16.00
2023-04-27T20:28:30.484Z,16.00
2023-04-27T20:30:59.146Z,16.00
2023-04-27T20:33:27.842Z,16.00
2023-04-27T20:36:03.498Z,16.00
2023-04-27T20:38:38.379Z,16.00
2023-04-27T20:41:06.578Z,16.00
2023-04-27T20:43:39.159Z,16.00
2023-04-27T20:46:08.302Z,15.90
2023-04-27T20:48:36.679Z,15.90
2023-04-27T20:51:05.096Z,15.90
2023-04-27T20:53:33.214Z,15.90
2023-04-27T20:56:01.331Z,15.90
2023-04-27T20:58:30.137Z,15.90
2023-04-27T21:01:00.151Z,15.80
2023-04-27T21:03:29.355Z,15.80
2023-04-27T21:05:58.042Z,15.80
2023-04-27T21:08:26.627Z,15.80
2023-04-27T21:10:54.728Z,15.70
2023-04-27T21:13:22.784Z,15.70
2023-04-27T21:15:50.978Z,15.70
2023-04-27T21:18:29.664Z,15.60
2023-04-27T21:20:58.874Z,15.60
2023-04-27T21:23:27.112Z,15.60
2023-04-27T21:25:55.169Z,15.50
2023-04-27T21:28:23.308Z,15.50
2023-04-27T21:30:51.607Z,15.50
2023-04-27T21:33:21.324Z,15.40
2023-04-27T21:35:49.398Z,15.40
2023-04-27T21:38:18.321Z,15.40
2023-04-27T21:40:46.454Z,15.40
2023-04-27T21:43:15.045Z,15.30
2023-04-27T21:45:43.918Z,15.30
2023-04-27T21:48:11.956Z,15.30
2023-04-27T21:50:41.422Z,15.30
2023-04-27T21:53:09.620Z,15.30
2023-04-27T21:55:38.254Z,15.20
2023-04-27T21:58:06.319Z,15.20
2023-04-27T22:00:34.918Z,15.20
2023-04-27T22:03:04.279Z,15.20
2023-04-27T22:05:33.457Z,15.10
2023-04-27T22:08:03.916Z,15.10
2023-04-27T22:10:31.949Z,15.10
2023-04-27T22:13:05.209Z,15.10
2023-04-27T22:15:43.586Z,15.10
2023-04-27T22:18:12.213Z,15.10
2023-04-27T22:20:40.405Z,15.10
2023-04-27T22:23:10.311Z,15.00
2023-04-27T22:25:39.004Z,15.00
2023-04-27T22:28:07.068Z,15.00
2023-04-27T22:30:36.401Z,14.90
2023-04-27T22:33:05.149Z,14.80
2023-04-27T22:35:34.451Z,14.80
2023-04-27T22:38:02.495Z,14.80
2023-04-27T22:40:32.452Z,14.80
2023-04-27T22:43:00.949Z,14.80
2023-04-27T22:45:29.534Z,14.80
2023-04-27T22:47:59.093Z,14.70
2023-04-27T22:50:27.621Z,14.70
2023-04-27T22:52:56.141Z,14.70
2023-04-27T22:55:24.282Z,14.60
2023-04-27T22:57:53.998Z,14.60
2023-04-27T23:00:22.726Z,14.60
2023-04-27T23:02:50.866Z,14.60
2023-04-27T23:05:19.512Z,14.60
2023-04-27T23:07:48.231Z,14.60
2023-04-27T23:10:18.860Z,14.60
2023-04-27T23:12:47.847Z,14.50
2023-04-27T23:15:17.471Z,14.50
2023-04-27T23:17:46.102Z,14.50
2023-04-27T23:20:27.460Z,14.40
2023-04-27T23:22:57.532Z,14.40
2023-04-27T23:25:25.688Z,14.40
2023-04-27T23:27:54.609Z,14.40
2023-04-27T23:30:24.214Z,14.40
2023-04-27T23:32:52.456Z,14.40
2023-04-27T23:35:20.935Z,14.40
2023-04-27T23:37:49.066Z,14.40
2023-04-27T23:40:17.885Z,14.40
2023-04-27T23:42:45.937Z,15.30
2023-04-27T23:45:14.527Z,14.30
2023-04-27T23:47:44.040Z,14.30
2023-04-27T23:50:12.761Z,14.30
2023-04-27T23:52:42.284Z,14.30
2023-04-27T23:55:11.239Z,14.30
2023-04-27T23:57:39.747Z,14.30
